sensor_id;sensor_type;location;lat;lon;timestamp;pressure;altitude;pressure_sealevel;temperature;humidity
25658;BME280;13517;59.320;18.042;2022-12-18T00:01:30;101658.34;;;-2.39;100.00
25658;BME280;13517;59.320;18.042;2022-12-18T00:03:56;101653.06;;;-2.39;100.00
25658;BME280;13517;59.320;18.042;2022-12-18T00:06:23;101660.13;;;-2.41;100.00
25658;BME280;13517;59.320;18.042;2022-12-18T00:08:49;101626.53;;;-2.52;100.00
25658;BME280;13517;59.320;18.042;2022-12-18T00:11:18;101551.41;;;-2.97;100.00
25658;BME280;13517;59.320;18.042;2022-12-18T00:13:44;101664.56;;;-2.31;100.00
25658;BME280;13517;59.320;18.042;2022-12-18T00:16:13;101649.56;;;-2.32;100.00
25658;BME280;13517;59.320;18.042;2022-12-18T00:18:39;101645.13;;;-2.41;100.00
25658;BME280;13517;59.320;18.042;2022-12-18T00:21:07;101656.63;;;-2.29;100.00
25658;BME280;13517;59.320;18.042;2022-12-18T00:23:34;101654.00;;;-2.28;100.00
25658;BME280;13517;59.320;18.042;2022-12-18T00:26:04;101623.06;;;-2.43;100.00
25658;BME280;13517;59.320;18.042;2022-12-18T00:28:30;101657.50;;;-2.32;100.00
25658;BME280;13517;59.320;18.042;2022-12-18T00:31:03;101645.13;;;-2.41;100.00
25658;BME280;13517;59.320;18.042;2022-12-18T00:33:29;101667.25;;;-2.26;100.00
25658;BME280;13517;59.320;18.042;2022-12-18T00:35:54;101641.59;;;-2.37;100.00
25658;BME280;13517;59.320;18.042;2022-12-18T00:38:25;101649.56;;;-2.27;100.00
25658;BME280;13517;59.320;18.042;2022-12-18T00:40:50;101654.91;;;-2.23;100.00
25658;BME280;13517;59.320;18.042;2022-12-18T00:43:15;101619.53;;;-2.42;100.00
25658;BME280;13517;59.320;18.042;2022-12-18T00:45:41;101590.31;;;-2.68;100.00
25658;BME280;13517;59.320;18.042;2022-12-18T00:48:06;101624.84;;;-2.36;100.00
25658;BME280;13517;59.320;18.042;2022-12-18T00:50:32;101626.63;;;-2.28;100.00
25658;BME280;13517;59.320;18.042;2022-12-18T00:52:57;101643.44;;;-2.22;100.00
25658;BME280;13517;59.320;18.042;2022-12-18T00:55:22;101630.16;;;-2.29;100.00
25658;BME280;13517;59.320;18.042;2022-12-18T00:57:48;101622.25;;;-2.26;100.00
25658;BME280;13517;59.320;18.042;2022-12-18T01:00:14;101595.72;;;-2.45;100.00
25658;BME280;13517;59.320;18.042;2022-12-18T01:02:40;101634.59;;;-2.27;100.00
25658;BME280;13517;59.320;18.042;2022-12-18T01:05:08;101620.47;;;-2.30;100.00
25658;BME280;13517;59.320;18.042;2022-12-18T01:07:33;101559.44;;;-2.76;100.00
25658;BME280;13517;59.320;18.042;2022-12-18T01:09:58;101616.91;;;-2.34;100.00
25658;BME280;13517;59.320;18.042;2022-12-18T01:12:24;101597.47;;;-2.46;100.00
25658;BME280;13517;59.320;18.042;2022-12-18T01:14:49;101609.88;;;-2.34;100.00
25658;BME280;13517;59.320;18.042;2022-12-18T01:17:15;101642.56;;;-2.19;100.00
25658;BME280;13517;59.320;18.042;2022-12-18T01:19:40;101617.81;;;-2.34;100.00
25658;BME280;13517;59.320;18.042;2022-12-18T01:22:05;101639.84;;;-2.35;100.00
25658;BME280;13517;59.320;18.042;2022-12-18T01:24:31;101646.91;;;-2.30;100.00
25658;BME280;13517;59.320;18.042;2022-12-18T01:26:56;101666.38;;;-2.17;100.00
25658;BME280;13517;59.320;18.042;2022-12-18T01:29:22;101652.19;;;-2.32;100.00
25658;BME280;13517;59.320;18.042;2022-12-18T01:31:48;101644.28;;;-2.30;100.00
25658;BME280;13517;59.320;18.042;2022-12-18T01:34:13;101673.44;;;-2.20;100.00
25658;BME280;13517;59.320;18.042;2022-12-18T01:36:39;101647.81;;;-2.28;100.00
25658;BME280;13517;59.320;18.042;2022-12-18T01:39:07;101654.91;;;-2.18;100.00
25658;BME280;13517;59.320;18.042;2022-12-18T01:41:34;101622.22;;;-2.31;100.00
25658;BME280;13517;59.320;18.042;2022-12-18T01:50:11;101637.25;;;-2.16;100.00
25658;BME280;13517;59.320;18.042;2022-12-18T01:52:37;101621.38;;;-2.17;100.00
25658;BME280;13517;59.320;18.042;2022-12-18T01:55:04;101617.84;;;-2.18;100.00
25658;BME280;13517;59.320;18.042;2022-12-18T01:57:30;101627.56;;;-2.11;100.00
25658;BME280;13517;59.320;18.042;2022-12-18T02:00:00;101620.47;;;-2.16;100.00
25658;BME280;13517;59.320;18.042;2022-12-18T02:02:27;101612.53;;;-2.20;100.00
25658;BME280;13517;59.320;18.042;2022-12-18T02:04:53;101631.97;;;-2.13;100.00
25658;BME280;13517;59.320;18.042;2022-12-18T02:16:17;101628.44;;;-2.09;100.00
25658;BME280;13517;59.320;18.042;2022-12-18T02:18:48;101631.97;;;-2.13;100.00
25658;BME280;13517;59.320;18.042;2022-12-18T02:26:58;101624.91;;;-2.08;100.00
25658;BME280;13517;59.320;18.042;2022-12-18T02:31:57;101620.50;;;-2.06;100.00
25658;BME280;13517;59.320;18.042;2022-12-18T02:34:28;101611.69;;;-2.11;100.00
25658;BME280;13517;59.320;18.042;2022-12-18T02:36:55;101627.56;;;-2.03;100.00
25658;BME280;13517;59.320;18.042;2022-12-18T02:39:26;101601.06;;;-2.23;100.00
25658;BME280;13517;59.320;18.042;2022-12-18T02:41:52;101617.88;;;-2.09;100.00
25658;BME280;13517;59.320;18.042;2022-12-18T02:44:17;101600.19;;;-2.16;100.00
25658;BME280;13517;59.320;18.042;2022-12-18T02:46:49;101598.47;;;-2.04;100.00
25658;BME280;13517;59.320;18.042;2022-12-18T02:54:55;101608.16;;;-2.07;100.00
25658;BME280;13517;59.320;18.042;2022-12-18T03:00:10;101577.25;;;-2.19;100.00
25658;BME280;13517;59.320;18.042;2022-12-18T03:05:46;101614.34;;;-2.06;100.00
25658;BME280;13517;59.320;18.042;2022-12-18T03:08:20;101604.63;;;-2.07;100.00
25658;BME280;13517;59.320;18.042;2022-12-18T03:13:32;101603.75;;;-2.08;100.00
25658;BME280;13517;59.320;18.042;2022-12-18T03:16:00;101600.22;;;-2.07;100.00
25658;BME280;13517;59.320;18.042;2022-12-18T03:18:32;101602.00;;;-2.12;100.00
25658;BME280;13517;59.320;18.042;2022-12-18T03:21:00;101594.94;;;-2.03;100.00
25658;BME280;13517;59.320;18.042;2022-12-18T03:23:32;101568.44;;;-2.19;100.00
25658;BME280;13517;59.320;18.042;2022-12-18T03:26:05;101592.28;;;-2.05;100.00
25658;BME280;13517;59.320;18.042;2022-12-18T03:28:35;101593.19;;;-2.04;100.00
25658;BME280;13517;59.320;18.042;2022-12-18T03:31:04;101586.97;;;-2.13;100.00
25658;BME280;13517;59.320;18.042;2022-12-18T03:33:51;101594.03;;;-2.09;100.00
25658;BME280;13517;59.320;18.042;2022-12-18T03:36:18;101575.47;;;-2.21;100.00
25658;BME280;13517;59.320;18.042;2022-12-18T03:38:43;101576.34;;;-2.17;100.00
25658;BME280;13517;59.320;18.042;2022-12-18T03:44:09;101590.50;;;-2.06;100.00
25658;BME280;13517;59.320;18.042;2022-12-18T03:49:12;101570.19;;;-2.18;100.00
25658;BME280;13517;59.320;18.042;2022-12-18T03:54:06;101548.09;;;-2.36;100.00
25658;BME280;13517;59.320;18.042;2022-12-18T03:56:38;101571.09;;;-2.19;100.00
25658;BME280;13517;59.320;18.042;2022-12-18T03:59:07;101577.25;;;-2.08;100.00
25658;BME280;13517;59.320;18.042;2022-12-18T04:01:40;101568.44;;;-2.11;100.00
25658;BME280;13517;59.320;18.042;2022-12-18T04:04:08;101558.69;;;-2.20;100.00
25658;BME280;13517;59.320;18.042;2022-12-18T04:06:35;101579.00;;;-2.13;100.00
25658;BME280;13517;59.320;18.042;2022-12-18T04:09:01;101581.69;;;-2.10;100.00
25658;BME280;13517;59.320;18.042;2022-12-18T04:11:27;101547.22;;;-2.35;100.00
25658;BME280;13517;59.320;18.042;2022-12-18T04:13:56;101591.41;;;-2.12;100.00
25658;BME280;13517;59.320;18.042;2022-12-18T04:16:23;101578.13;;;-2.20;100.00
25658;BME280;13517;59.320;18.042;2022-12-18T04:18:48;101601.97;;;-2.15;100.00
25658;BME280;13517;59.320;18.042;2022-12-18T04:21:14;101588.72;;;-2.20;100.00
25658;BME280;13517;59.320;18.042;2022-12-18T04:23:39;101491.56;;;-2.72;100.00
25658;BME280;13517;59.320;18.042;2022-12-18T04:26:04;101590.47;;;-2.20;100.00
25658;BME280;13517;59.320;18.042;2022-12-18T04:28:30;101600.22;;;-2.14;100.00
25658;BME280;13517;59.320;18.042;2022-12-18T04:30:55;101584.28;;;-2.28;100.00
25658;BME280;13517;59.320;18.042;2022-12-18T04:33:20;101597.53;;;-2.17;100.00
25658;BME280;13517;59.320;18.042;2022-12-18T04:35:46;101557.78;;;-2.35;100.00
25658;BME280;13517;59.320;18.042;2022-12-18T04:38:11;101581.66;;;-2.27;100.00
25658;BME280;13517;59.320;18.042;2022-12-18T04:40:37;101553.38;;;-2.43;100.00
25658;BME280;13517;59.320;18.042;2022-12-18T04:43:03;101556.91;;;-2.32;100.00
25658;BME280;13517;59.320;18.042;2022-12-18T04:45:33;101591.38;;;-2.18;100.00
25658;BME280;13517;59.320;18.042;2022-12-18T04:47:59;101554.28;;;-2.40;100.00
25658;BME280;13517;59.320;18.042;2022-12-18T04:50:25;101569.28;;;-2.34;100.00
25658;BME280;13517;59.320;18.042;2022-12-18T04:52:51;101586.97;;;-2.19;100.00
25658;BME280;13517;59.320;18.042;2022-12-18T04:55:16;101529.53;;;-2.51;100.00
25658;BME280;13517;59.320;18.042;2022-12-18T04:57:42;101511.00;;;-2.61;100.00
25658;BME280;13517;59.320;18.042;2022-12-18T05:00:08;101541.03;;;-2.32;100.00
25658;BME280;13517;59.320;18.042;2022-12-18T05:02:33;101549.00;;;-2.30;100.00
25658;BME280;13517;59.320;18.042;2022-12-18T05:04:59;101543.69;;;-2.30;100.00
25658;BME280;13517;59.320;18.042;2022-12-18T05:07:24;101544.59;;;-2.22;100.00
25658;BME280;13517;59.320;18.042;2022-12-18T05:09:50;101536.66;;;-2.31;100.00
25658;BME280;13517;59.320;18.042;2022-12-18T05:12:15;101542.84;;;-2.26;100.00
25658;BME280;13517;59.320;18.042;2022-12-18T05:14:40;101511.03;;;-2.50;100.00
25658;BME280;13517;59.320;18.042;2022-12-18T05:17:06;101526.91;;;-2.31;100.00
25658;BME280;13517;59.320;18.042;2022-12-18T05:19:31;101534.91;;;-2.26;100.00
25658;BME280;13517;59.320;18.042;2022-12-18T05:21:56;101529.59;;;-2.26;100.00
25658;BME280;13517;59.320;18.042;2022-12-18T05:24:22;101525.19;;;-2.24;100.00
25658;BME280;13517;59.320;18.042;2022-12-18T05:26:48;101526.94;;;-2.23;100.00
25658;BME280;13517;59.320;18.042;2022-12-18T05:29:13;101518.09;;;-2.24;100.00
25658;BME280;13517;59.320;18.042;2022-12-18T05:31:39;101497.81;;;-2.29;100.00
25658;BME280;13517;59.320;18.042;2022-12-18T05:34:04;101471.31;;;-2.48;100.00
25658;BME280;13517;59.320;18.042;2022-12-18T05:36:30;101489.00;;;-2.41;100.00
25658;BME280;13517;59.320;18.042;2022-12-18T05:38:55;101531.38;;;-2.19;100.00
25658;BME280;13517;59.320;18.042;2022-12-18T05:41:21;101486.34;;;-2.42;100.00
25658;BME280;13517;59.320;18.042;2022-12-18T05:43:46;101445.75;;;-2.62;100.00
25658;BME280;13517;59.320;18.042;2022-12-18T05:46:15;101524.31;;;-2.14;100.00
25658;BME280;13517;59.320;18.042;2022-12-18T05:48:42;101530.50;;;-2.12;100.00
25658;BME280;13517;59.320;18.042;2022-12-18T05:51:13;101519.88;;;-2.10;100.00
25658;BME280;13517;59.320;18.042;2022-12-18T05:53:40;101501.38;;;-2.18;100.00
25658;BME280;13517;59.320;18.042;2022-12-18T05:56:10;101509.28;;;-2.10;100.00
25658;BME280;13517;59.320;18.042;2022-12-18T05:58:36;101512.84;;;-2.11;100.00
25658;BME280;13517;59.320;18.042;2022-12-18T06:03:38;101515.50;;;-2.08;100.00
25658;BME280;13517;59.320;18.042;2022-12-18T06:06:04;101509.31;;;-2.09;100.00
25658;BME280;13517;59.320;18.042;2022-12-18T06:08:29;101489.00;;;-2.13;100.00
25658;BME280;13517;59.320;18.042;2022-12-18T06:10:55;101494.31;;;-2.08;100.00
25658;BME280;13517;59.320;18.042;2022-12-18T06:13:20;101492.56;;;-2.11;100.00
25658;BME280;13517;59.320;18.042;2022-12-18T06:15:46;101466.06;;;-2.26;100.00
25658;BME280;13517;59.320;18.042;2022-12-18T06:18:12;101499.59;;;-2.03;100.00
25658;BME280;13517;59.320;18.042;2022-12-18T06:20:37;101496.06;;;-2.06;100.00
25658;BME280;13517;59.320;18.042;2022-12-18T06:23:05;101504.88;;;-2.07;100.00
25658;BME280;13517;59.320;18.042;2022-12-18T06:25:30;101501.34;;;-1.99;100.00
25658;BME280;13517;59.320;18.042;2022-12-18T06:27:56;101501.38;;;-2.09;100.00
25658;BME280;13517;59.320;18.042;2022-12-18T06:30:21;101481.94;;;-2.08;100.00
25658;BME280;13517;59.320;18.042;2022-12-18T06:32:48;101459.00;;;-2.18;100.00
25658;BME280;13517;59.320;18.042;2022-12-18T06:35:14;101483.72;;;-2.03;100.00
25658;BME280;13517;59.320;18.042;2022-12-18T06:37:39;101407.81;;;-2.42;100.00
25658;BME280;13517;59.320;18.042;2022-12-18T06:40:05;101481.97;;;-1.98;100.00
25658;BME280;13517;59.320;18.042;2022-12-18T06:42:31;101468.69;;;-2.03;100.00
25658;BME280;13517;59.320;18.042;2022-12-18T06:44:57;101493.44;;;-1.90;100.00
25658;BME280;13517;59.320;18.042;2022-12-18T06:47:22;101398.13;;;-2.38;100.00
25658;BME280;13517;59.320;18.042;2022-12-18T06:49:48;101464.28;;;-2.06;100.00
25658;BME280;13517;59.320;18.042;2022-12-18T06:52:13;101501.34;;;-1.87;100.00
25658;BME280;13517;59.320;18.042;2022-12-18T06:54:39;101478.41;;;-1.94;100.00
25658;BME280;13517;59.320;18.042;2022-12-18T06:57:05;101504.88;;;-1.85;100.00
25658;BME280;13517;59.320;18.042;2022-12-18T06:59:30;101484.59;;;-1.94;100.00
25658;BME280;13517;59.320;18.042;2022-12-18T07:01:56;101411.38;;;-2.30;100.00
25658;BME280;13517;59.320;18.042;2022-12-18T07:04:21;101431.66;;;-2.22;100.00
25658;BME280;13517;59.320;18.042;2022-12-18T07:06:47;101448.41;;;-2.06;100.00
25658;BME280;13517;59.320;18.042;2022-12-18T07:09:12;101489.00;;;-1.82;100.00
25658;BME280;13517;59.320;18.042;2022-12-18T07:11:37;101465.16;;;-1.96;100.00
25658;BME280;13517;59.320;18.042;2022-12-18T07:14:03;101499.59;;;-1.82;100.00
25658;BME280;13517;59.320;18.042;2022-12-18T07:16:28;101474.88;;;-1.93;100.00
25658;BME280;13517;59.320;18.042;2022-12-18T07:18:54;101502.22;;;-1.68;100.00
25658;BME280;13517;59.320;18.042;2022-12-18T07:21:21;101422.81;;;-2.07;100.00
25658;BME280;13517;59.320;18.042;2022-12-18T07:23:47;101481.91;;;-1.75;100.00
25658;BME280;13517;59.320;18.042;2022-12-18T07:26:14;101504.88;;;-1.58;100.00
25658;BME280;13517;59.320;18.042;2022-12-18T07:28:40;101507.50;;;-1.54;100.00
25658;BME280;13517;59.320;18.042;2022-12-18T07:31:14;101480.16;;;-1.65;100.00
25658;BME280;13517;59.320;18.042;2022-12-18T07:33:40;101505.75;;;-1.48;100.00
25658;BME280;13517;59.320;18.042;2022-12-18T07:36:07;101491.59;;;-1.43;100.00
25658;BME280;13517;59.320;18.042;2022-12-18T07:38:34;101496.00;;;-1.40;100.00
25658;BME280;13517;59.320;18.042;2022-12-18T07:41:10;101495.97;;;-1.37;100.00
25658;BME280;13517;59.320;18.042;2022-12-18T07:43:37;101466.84;;;-1.49;100.00
25658;BME280;13517;59.320;18.042;2022-12-18T07:46:02;101401.59;;;-1.83;100.00
25658;BME280;13517;59.320;18.042;2022-12-18T07:48:29;101482.69;;;-1.26;100.00
25658;BME280;13517;59.320;18.042;2022-12-18T07:50:58;101446.56;;;-1.52;100.00
25658;BME280;13517;59.320;18.042;2022-12-18T07:53:24;101489.78;;;-1.28;100.00
25658;BME280;13517;59.320;18.042;2022-12-18T07:55:57;101503.91;;;-1.28;100.00
25658;BME280;13517;59.320;18.042;2022-12-18T07:58:23;101502.16;;;-1.26;100.00
25658;BME280;13517;59.320;18.042;2022-12-18T08:00:49;101488.88;;;-1.27;100.00
25658;BME280;13517;59.320;18.042;2022-12-18T08:03:14;101510.09;;;-1.23;100.00
25658;BME280;13517;59.320;18.042;2022-12-18T08:05:40;101473.03;;;-1.37;100.00
25658;BME280;13517;59.320;18.042;2022-12-18T08:08:05;101487.13;;;-1.20;100.00
25658;BME280;13517;59.320;18.042;2022-12-18T08:10:31;101506.53;;;-1.12;100.00
25658;BME280;13517;59.320;18.042;2022-12-18T08:12:56;101464.19;;;-1.35;100.00
25658;BME280;13517;59.320;18.042;2022-12-18T08:15:22;101499.41;;;-1.07;100.00
25658;BME280;13517;59.320;18.042;2022-12-18T08:17:47;101497.66;;;-1.05;100.00
25658;BME280;13517;59.320;18.042;2022-12-18T08:20:13;101488.81;;;-1.04;100.00
25658;BME280;13517;59.320;18.042;2022-12-18T08:22:43;101478.19;;;-1.04;100.00
25658;BME280;13517;59.320;18.042;2022-12-18T08:25:09;101431.44;;;-1.24;100.00
25658;BME280;13517;59.320;18.042;2022-12-18T08:27:35;101481.69;;;-0.96;100.00
25658;BME280;13517;59.320;18.042;2022-12-18T08:30:00;101464.06;;;-1.03;100.00
25658;BME280;13517;59.320;18.042;2022-12-18T08:32:27;101471.06;;;-0.91;100.00
25658;BME280;13517;59.320;18.042;2022-12-18T08:34:53;101445.50;;;-1.06;100.00
25658;BME280;13517;59.320;18.042;2022-12-18T08:37:18;101445.44;;;-1.00;100.00
25658;BME280;13517;59.320;18.042;2022-12-18T08:39:44;101454.25;;;-0.90;100.00
25658;BME280;13517;59.320;18.042;2022-12-18T08:42:09;101474.56;;;-0.78;100.00
25658;BME280;13517;59.320;18.042;2022-12-18T08:44:53;101478.97;;;-0.80;100.00
25658;BME280;13517;59.320;18.042;2022-12-18T08:47:18;101474.56;;;-0.79;100.00
25658;BME280;13517;59.320;18.042;2022-12-18T08:49:44;101465.72;;;-0.81;100.00
25658;BME280;13517;59.320;18.042;2022-12-18T08:52:09;101444.50;;;-0.86;100.00
25658;BME280;13517;59.320;18.042;2022-12-18T08:54:35;101478.88;;;-0.64;100.00
25658;BME280;13517;59.320;18.042;2022-12-18T08:57:00;101483.31;;;-0.63;100.00
25658;BME280;13517;59.320;18.042;2022-12-18T08:59:28;101455.03;;;-0.67;100.00
25658;BME280;13517;59.320;18.042;2022-12-18T09:01:54;101477.91;;;-0.49;100.00
25658;BME280;13517;59.320;18.042;2022-12-18T09:04:20;101484.97;;;-0.47;100.00
25658;BME280;13517;59.320;18.042;2022-12-18T09:06:46;101461.13;;;-0.55;100.00
25658;BME280;13517;59.320;18.042;2022-12-18T09:09:11;101454.06;;;-0.57;100.00
25658;BME280;13517;59.320;18.042;2022-12-18T09:11:37;101491.97;;;-0.36;100.00
25658;BME280;13517;59.320;18.042;2022-12-18T09:14:03;101455.81;;;-0.53;100.00
25658;BME280;13517;59.320;18.042;2022-12-18T09:16:29;101486.63;;;-0.27;100.00
25658;BME280;13517;59.320;18.042;2022-12-18T09:18:55;101446.88;;;-0.43;100.00
25658;BME280;13517;59.320;18.042;2022-12-18T09:21:26;101482.13;;;-0.20;100.00
25658;BME280;13517;59.320;18.042;2022-12-18T09:23:54;101476.81;;;-0.17;100.00
25658;BME280;13517;59.320;18.042;2022-12-18T09:26:21;101451.25;;;-0.34;100.00
25658;BME280;13517;59.320;18.042;2022-12-18T09:28:46;101463.53;;;-0.19;100.00
25658;BME280;13517;59.320;18.042;2022-12-18T09:31:16;101459.94;;;-0.11;100.00
25658;BME280;13517;59.320;18.042;2022-12-18T09:33:42;101460.75;;;-0.05;100.00
25658;BME280;13517;59.320;18.042;2022-12-18T09:36:09;101450.97;;;-0.01;100.00
25658;BME280;13517;59.320;18.042;2022-12-18T09:38:36;101417.44;;;-0.11;100.00
25658;BME280;13517;59.320;18.042;2022-12-18T09:43:48;101421.81;;;-0.06;100.00
25658;BME280;13517;59.320;18.042;2022-12-18T09:46:37;101424.34;;;0.07;100.00
25658;BME280;13517;59.320;18.042;2022-12-18T09:49:09;101393.47;;;-0.05;100.00
25658;BME280;13517;59.320;18.042;2022-12-18T09:51:40;101424.28;;;0.11;100.00
25658;BME280;13517;59.320;18.042;2022-12-18T09:54:17;101359.06;;;-0.18;100.00
25658;BME280;13517;59.320;18.042;2022-12-18T09:56:43;101404.84;;;0.09;100.00
25658;BME280;13517;59.320;18.042;2022-12-18T09:59:24;101401.22;;;0.17;100.00
25658;BME280;13517;59.320;18.042;2022-12-18T10:01:50;101392.28;;;0.24;100.00
25658;BME280;13517;59.320;18.042;2022-12-18T10:04:16;101380.75;;;0.25;100.00
25658;BME280;13517;59.320;18.042;2022-12-18T10:06:56;101366.00;;;-0.04;100.00
25658;BME280;13517;59.320;18.042;2022-12-18T10:09:32;101425.88;;;0.31;100.00
25658;BME280;13517;59.320;18.042;2022-12-18T10:20:02;101386.94;;;0.27;100.00
25658;BME280;13517;59.320;18.042;2022-12-18T10:25:25;101353.28;;;0.28;100.00
25658;BME280;13517;59.320;18.042;2022-12-18T10:27:57;101371.75;;;0.40;100.00
25658;BME280;13517;59.320;18.042;2022-12-18T10:30:24;101387.69;;;0.40;100.00
25658;BME280;13517;59.320;18.042;2022-12-18T10:32:50;101359.50;;;0.25;100.00
25658;BME280;13517;59.320;18.042;2022-12-18T10:35:23;101383.16;;;0.45;100.00
25658;BME280;13517;59.320;18.042;2022-12-18T10:38:07;101380.63;;;0.37;100.00
25658;BME280;13517;59.320;18.042;2022-12-18T10:41:26;101363.91;;;0.24;100.00
25658;BME280;13517;59.320;18.042;2022-12-18T10:46:45;101397.34;;;0.47;100.00
25658;BME280;13517;59.320;18.042;2022-12-18T10:49:26;101326.09;;;0.02;100.00
25658;BME280;13517;59.320;18.042;2022-12-18T10:52:23;101365.66;;;0.27;100.00
25658;BME280;13517;59.320;18.042;2022-12-18T10:54:55;101393.78;;;0.48;100.00
25658;BME280;13517;59.320;18.042;2022-12-18T10:59:56;101394.63;;;0.50;100.00
25658;BME280;13517;59.320;18.042;2022-12-18T11:04:54;101394.63;;;0.52;100.00
25658;BME280;13517;59.320;18.042;2022-12-18T11:07:19;101326.03;;;0.07;100.00
25658;BME280;13517;59.320;18.042;2022-12-18T11:09:59;101386.69;;;0.49;100.00
25658;BME280;13517;59.320;18.042;2022-12-18T11:12:28;101358.47;;;0.38;100.00
25658;BME280;13517;59.320;18.042;2022-12-18T11:14:54;101382.19;;;0.54;100.00
25658;BME280;13517;59.320;18.042;2022-12-18T11:17:25;101395.47;;;0.54;100.00
25658;BME280;13517;59.320;18.042;2022-12-18T11:19:55;101394.59;;;0.55;100.00
25658;BME280;13517;59.320;18.042;2022-12-18T11:22:27;101379.53;;;0.52;100.00
25658;BME280;13517;59.320;18.042;2022-12-18T11:27:24;101354.94;;;0.36;100.00
25658;BME280;13517;59.320;18.042;2022-12-18T11:29:50;101383.16;;;0.50;100.00
25658;BME280;13517;59.320;18.042;2022-12-18T11:32:37;101372.50;;;0.50;100.00
25658;BME280;13517;59.320;18.042;2022-12-18T11:35:08;101389.25;;;0.58;100.00
25658;BME280;13517;59.320;18.042;2022-12-18T11:37:37;101360.16;;;0.44;100.00
25658;BME280;13517;59.320;18.042;2022-12-18T11:40:15;101351.34;;;0.40;100.00
25658;BME280;13517;59.320;18.042;2022-12-18T11:45:34;101383.03;;;0.56;100.00
25658;BME280;13517;59.320;18.042;2022-12-18T11:48:19;101384.84;;;0.54;100.00
25658;BME280;13517;59.320;18.042;2022-12-18T11:50:50;101357.53;;;0.41;100.00
25658;BME280;13517;59.320;18.042;2022-12-18T11:53:17;101381.22;;;0.60;100.00
25658;BME280;13517;59.320;18.042;2022-12-18T11:56:02;101386.59;;;0.58;100.00
25658;BME280;13517;59.320;18.042;2022-12-18T12:01:53;101372.38;;;0.61;100.00
25658;BME280;13517;59.320;18.042;2022-12-18T12:15:49;101361.81;;;0.53;100.00
25658;BME280;13517;59.320;18.042;2022-12-18T12:18:46;101369.59;;;0.67;100.00
25658;BME280;13517;59.320;18.042;2022-12-18T12:21:41;101276.47;;;0.07;100.00
25658;BME280;13517;59.320;18.042;2022-12-18T12:24:42;101381.13;;;0.67;100.00
25658;BME280;13517;59.320;18.042;2022-12-18T12:27:34;101380.22;;;0.70;100.00
25658;BME280;13517;59.320;18.042;2022-12-18T12:38:11;101400.53;;;0.76;100.00
25658;BME280;13517;59.320;18.042;2022-12-18T12:40:49;101391.69;;;0.74;100.00
25658;BME280;13517;59.320;18.042;2022-12-18T12:43:24;101384.63;;;0.73;100.00
25658;BME280;13517;59.320;18.042;2022-12-18T12:45:55;101384.56;;;0.79;100.00
25658;BME280;13517;59.320;18.042;2022-12-18T12:48:50;101389.81;;;0.82;100.00
25658;BME280;13517;59.320;18.042;2022-12-18T12:51:34;101366.91;;;0.72;100.00
25658;BME280;13517;59.320;18.042;2022-12-18T12:54:01;101365.13;;;0.71;100.00
25658;BME280;13517;59.320;18.042;2022-12-18T12:56:36;101373.84;;;0.82;100.00
25658;BME280;13517;59.320;18.042;2022-12-18T13:04:58;101369.44;;;0.83;100.00
25658;BME280;13517;59.320;18.042;2022-12-18T13:07:31;101355.25;;;0.80;100.00
25658;BME280;13517;59.320;18.042;2022-12-18T13:20:36;101389.38;;;1.13;100.00
25658;BME280;13517;59.320;18.042;2022-12-18T13:25:51;101390.25;;;1.15;100.00
25658;BME280;13517;59.320;18.042;2022-12-18T13:31:12;101357.44;;;1.13;100.00
25658;BME280;13517;59.320;18.042;2022-12-18T13:33:41;101346.75;;;1.16;100.00
25658;BME280;13517;59.320;18.042;2022-12-18T13:36:26;101354.75;;;1.15;100.00
25658;BME280;13517;59.320;18.042;2022-12-18T13:39:15;101359.22;;;1.14;100.00
25658;BME280;13517;59.320;18.042;2022-12-18T13:42:31;101344.28;;;1.04;100.00
25658;BME280;13517;59.320;18.042;2022-12-18T13:44:59;101331.97;;;0.95;100.00
25658;BME280;13517;59.320;18.042;2022-12-18T13:47:32;101344.25;;;1.07;100.00
25658;BME280;13517;59.320;18.042;2022-12-18T13:49:59;101337.34;;;0.93;100.00
25658;BME280;13517;59.320;18.042;2022-12-18T13:52:27;101346.34;;;0.85;100.00
25658;BME280;13517;59.320;18.042;2022-12-18T13:54:55;101352.56;;;0.84;100.00
25658;BME280;13517;59.320;18.042;2022-12-18T14:00:33;101378.94;;;1.01;100.00
25658;BME280;13517;59.320;18.042;2022-12-18T14:02:58;101385.91;;;1.08;100.00
25658;BME280;13517;59.320;18.042;2022-12-18T14:05:33;101385.00;;;1.09;100.00
25658;BME280;13517;59.320;18.042;2022-12-18T14:08:05;101360.09;;;1.15;100.00
25658;BME280;13517;59.320;18.042;2022-12-18T14:10:33;101366.41;;;1.06;100.00
25658;BME280;13517;59.320;18.042;2022-12-18T14:13:05;101386.78;;;1.10;100.00
25658;BME280;13517;59.320;18.042;2022-12-18T14:15:39;101397.34;;;1.15;100.00
25658;BME280;13517;59.320;18.042;2022-12-18T14:18:26;101395.56;;;1.15;100.00
25658;BME280;13517;59.320;18.042;2022-12-18T14:20:57;101400.81;;;1.20;100.00
25658;BME280;13517;59.320;18.042;2022-12-18T14:23:33;101402.56;;;1.24;100.00
25658;BME280;13517;59.320;18.042;2022-12-18T14:26:00;101369.81;;;1.17;100.00
25658;BME280;13517;59.320;18.042;2022-12-18T14:28:26;101383.94;;;1.22;100.00
25658;BME280;13517;59.320;18.042;2022-12-18T14:30:53;101385.59;;;1.30;100.00
25658;BME280;13517;59.320;18.042;2022-12-18T14:33:25;101388.19;;;1.33;100.00
25658;BME280;13517;59.320;18.042;2022-12-18T14:35:55;101381.09;;;1.33;100.00
25658;BME280;13517;59.320;18.042;2022-12-18T14:43:32;101369.63;;;1.30;100.00
25658;BME280;13517;59.320;18.042;2022-12-18T14:45:58;101382.03;;;1.29;100.00
25658;BME280;13517;59.320;18.042;2022-12-18T14:48:40;101393.59;;;1.30;100.00
25658;BME280;13517;59.320;18.042;2022-12-18T14:53:44;101407.72;;;1.35;100.00